Terminal Aerodrome Forecast
Issued by NWS

Home | Current Version | Previous Version | Graphics & Text | Print | Product List | Glossary On
Versions: 1 2 3 4 5 6 7 8 9 10 11 12 13 14 15 16 17 18 19 20 21 22 23 24 25 26 27 28 29 30 31 32 33
000
FTUS43 KLOT 271728
TAFORD
TAF
KORD 271728Z 2718/2824 25013G22KT P6SM VCSH BKN040 BKN200
     FM272000 29011KT P6SM SCT035
     FM272300 05005KT P6SM FEW040
     FM280100 VRB03KT P6SM SKC
     FM281500 15012KT P6SM FEW050=

USA.gov is the U.S. government's official web portal to all federal, state and local government web resources and services.